Hickory Valley, Tennessee
Current Conditions -  °F | °C
As of 1:53 PM on Friday 28 Nov 2014 (Local Time) from KMKL Reporting Station
Clear Clear  
Wind Chill: 52°   Ceiling: Unl
Heat Index: 52°   Visibility: 10mi
Dew Point: 24°   Wind: 14mph
Humidity: 34%   Direction: 190°S
Pressure: 30.21"   Gusts: 21mph
Location:  35.15°N, 89.13°W
Report Text: KMKL 281953Z 19012G18KT 10SM CLR 11/M04 A3021 RMK AO2 SLP232 T01111044
Loading
Personal Weather Stations






























Interactive Weather Map New forecast layout! Learn more

10-Day Weather Forecast

Advertisements
Track Severe Weather on mobile